Time;durP1;ratioP1;P1;durP2;ratioP2;P2;SDS_P1;SDS_P2;PMS_P1;PMS_P2;Temp;Humidity;BMP_temperature;BMP_pressure;BME280_temperature;BME280_humidity;BME280_pressure;Samples;Min_cycle;Max_cycle;Signal;HPM_P1;HPM_P2
2022/04/26 03:36:11;;;;;;;5.15;2.65;;;7.80;99.90;;;;;;5066081;28;20040;-74
2022/04/26 03:38:43;;;;;;;8.07;3.67;;;7.70;99.90;;;;;;5050259;28;20059;-74
2022/04/26 03:41:09;;;;;;;7.80;3.35;;;7.70;99.90;;;;;;5048841;28;20461;-74
2022/04/26 03:43:35;;;;;;;6.30;2.95;;;7.70;99.90;;;;;;5064087;28;20406;-74
2022/04/26 03:46:00;;;;;;;8.45;3.38;;;7.70;99.90;;;;;;5066711;28;20051;-74
2022/04/26 03:48:26;;;;;;;3.95;2.05;;;7.70;99.90;;;;;;5065762;28;20489;-74
2022/04/26 03:50:52;;;;;;;9.77;3.03;;;7.70;99.90;;;;;;5064318;28;20040;-74
2022/04/26 03:53:17;;;;;;;5.25;2.55;;;7.70;99.90;;;;;;5049369;28;20059;-74
2022/04/26 03:55:43;;;;;;;4.10;2.67;;;7.70;99.90;;;;;;5067336;28;20028;-74
2022/04/26 03:58:09;;;;;;;6.97;2.92;;;7.60;99.90;;;;;;5047281;28;20085;-74
2022/04/26 04:00:34;;;;;;;5.18;2.70;;;7.60;99.90;;;;;;5061757;28;20119;-74
2022/04/26 04:03:00;;;;;;;8.13;3.08;;;7.60;99.90;;;;;;5061786;28;20040;-74
2022/04/26 04:05:26;;;;;;;5.55;2.63;;;7.60;99.90;;;;;;5066006;28;20036;-74
2022/04/26 04:07:51;;;;;;;5.35;2.83;;;7.60;99.90;;;;;;5044788;28;20048;-74
2022/04/26 04:10:17;;;;;;;5.68;2.13;;;7.50;99.90;;;;;;5049384;28;20041;-74
2022/04/26 04:12:43;;;;;;;3.42;1.80;;;7.50;99.90;;;;;;5066473;28;20117;-74
2022/04/26 04:15:09;;;;;;;4.05;2.00;;;7.50;99.90;;;;;;5064797;28;20076;-74
2022/04/26 04:17:35;;;;;;;4.88;2.28;;;7.50;99.90;;;;;;5046657;28;20036;-74
2022/04/26 04:20:01;;;;;;;5.00;3.13;;;7.50;99.90;;;;;;5062669;28;20048;-74
2022/04/26 04:22:27;;;;;;;10.05;2.60;;;7.50;99.90;;;;;;5062363;28;20043;-74
2022/04/26 04:24:52;;;;;;;6.15;2.63;;;7.50;99.90;;;;;;5066515;28;20059;-74
2022/04/26 04:27:18;;;;;;;7.25;2.42;;;7.50;99.90;;;;;;5065775;28;20115;-74
2022/04/26 04:29:46;;;;;;;5.22;3.03;;;7.50;99.90;;;;;;5041017;28;20038;-74
2022/04/26 04:32:12;;;;;;;2.95;2.47;;;7.40;99.90;;;;;;5047992;28;20032;-74
2022/04/26 04:34:38;;;;;;;8.60;2.42;;;7.40;99.90;;;;;;5065436;28;20043;-74
2022/04/26 04:37:04;;;;;;;6.95;2.80;;;7.50;99.90;;;;;;5064799;28;20129;-74
2022/04/26 04:39:29;;;;;;;6.68;2.90;;;7.50;99.90;;;;;;5065690;28;20036;-74
2022/04/26 04:41:55;;;;;;;3.78;2.22;;;7.40;99.90;;;;;;5065477;28;20093;-74
2022/04/26 04:44:21;;;;;;;4.78;2.60;;;7.50;99.90;;;;;;5063244;28;20051;-74
2022/04/26 04:46:48;;;;;;;3.88;2.08;;;7.50;99.90;;;;;;5047867;28;20040;-74
2022/04/26 04:49:13;;;;;;;4.75;3.20;;;7.50;99.90;;;;;;5064731;28;20505;-74
2022/04/26 04:51:39;;;;;;;4.38;2.42;;;7.50;99.90;;;;;;5048888;28;20032;-74
2022/04/26 04:54:04;;;;;;;4.22;2.03;;;7.60;99.90;;;;;;5065627;28;20129;-74
2022/04/26 04:56:31;;;;;;;3.15;1.92;;;7.60;99.90;;;;;;5068230;28;20031;-74
2022/04/26 04:58:57;;;;;;;3.17;1.92;;;7.50;99.90;;;;;;5048552;28;20432;-74
2022/04/26 05:01:23;;;;;;;5.18;2.30;;;7.60;99.90;;;;;;5065845;28;20039;-74
2022/04/26 05:03:49;;;;;;;4.20;2.03;;;7.60;99.90;;;;;;5048055;28;20029;-74
2022/04/26 05:06:15;;;;;;;4.70;2.33;;;7.60;99.90;;;;;;5047224;28;20028;-74
2022/04/26 05:08:42;;;;;;;6.35;2.53;;;7.60;99.90;;;;;;5060299;28;20120;-74
2022/04/26 05:11:08;;;;;;;4.53;2.28;;;7.70;99.90;;;;;;5065162;28;20115;-74
2022/04/26 05:13:33;;;;;;;3.63;1.80;;;7.70;99.90;;;;;;5063464;28;20502;-74
2022/04/26 05:16:00;;;;;;;4.88;2.63;;;7.70;99.90;;;;;;5048238;28;20036;-74
2022/04/26 05:18:27;;;;;;;3.45;2.20;;;7.70;99.90;;;;;;5064442;28;20040;-74
2022/04/26 05:20:52;;;;;;;7.90;2.20;;;7.70;99.90;;;;;;5066311;28;20052;-74
2022/04/26 05:26:02;;;;;;;5.03;2.03;;;7.70;99.90;;;;;;5055336;28;20445;-74
2022/04/26 05:28:28;;;;;;;4.82;2.20;;;7.80;99.90;;;;;;5041374;28;20033;-74
2022/04/26 05:30:54;;;;;;;3.65;1.45;;;7.80;99.90;;;;;;5049027;28;20526;-74
2022/04/26 05:33:21;;;;;;;6.85;1.67;;;7.90;99.90;;;;;;5065936;28;20510;-74
2022/04/26 05:35:50;;;;;;;2.67;1.25;;;7.90;99.90;;;;;;5065704;28;20037;-74
2022/04/26 05:38:17;;;;;;;4.55;1.77;;;7.90;99.90;;;;;;5065282;28;20577;-74
2022/04/26 05:40:43;;;;;;;6.20;1.75;;;7.90;99.90;;;;;;5063407;28;20051;-74
2022/04/26 05:43:09;;;;;;;3.15;1.65;;;8.00;99.90;;;;;;5064354;28;20037;-74
2022/04/26 05:45:35;;;;;;;4.20;1.77;;;8.00;99.90;;;;;;5064507;28;20109;-74
2022/04/26 05:48:00;;;;;;;2.55;1.50;;;8.00;99.90;;;;;;5063423;28;20136;-74
2022/04/26 05:50:26;;;;;;;7.03;1.85;;;8.00;99.90;;;;;;5064564;28;20048;-74
2022/04/26 05:52:51;;;;;;;3.25;1.75;;;8.10;99.90;;;;;;5049491;28;20048;-74
2022/04/26 05:55:17;;;;;;;3.85;1.27;;;8.10;99.90;;;;;;5066691;28;20047;-74
2022/04/26 05:57:43;;;;;;;2.17;1.60;;;8.10;99.90;;;;;;5069291;28;20044;-74
2022/04/26 06:00:11;;;;;;;7.65;2.22;;;8.20;99.90;;;;;;5065086;28;20055;-74
2022/04/26 06:02:37;;;;;;;3.83;1.63;;;8.20;99.90;;;;;;5052191;28;20040;-74
2022/04/26 06:05:03;;;;;;;5.53;1.55;;;8.20;99.90;;;;;;5067237;28;20040;-74
2022/04/26 06:07:29;;;;;;;3.92;1.88;;;8.30;99.90;;;;;;5068237;28;20039;-74
2022/04/26 06:09:55;;;;;;;1.88;1.20;;;8.40;99.90;;;;;;5050216;28;20036;-74
2022/04/26 06:12:26;;;;;;;3.03;1.48;;;8.40;99.90;;;;;;5052003;28;20493;-74
2022/04/26 06:14:59;;;;;;;3.90;1.65;;;8.50;99.90;;;;;;5063908;28;20041;-74
2022/04/26 06:17:25;;;;;;;3.53;1.50;;;8.60;99.90;;;;;;5061016;28;20033;-73
2022/04/26 06:19:51;;;;;;;2.95;1.63;;;8.60;99.90;;;;;;5060016;28;20036;-73
2022/04/26 06:22:17;;;;;;;2.50;1.42;;;8.60;99.90;;;;;;5066395;28;20040;-74
2022/04/26 06:24:42;;;;;;;3.58;1.73;;;8.60;99.90;;;;;;5048498;28;20575;-74
2022/04/26 06:27:08;;;;;;;2.28;1.55;;;8.60;99.90;;;;;;5051600;28;20041;-74
2022/04/26 06:29:34;;;;;;;4.32;1.30;;;8.60;99.90;;;;;;5048173;28;20056;-74
2022/04/26 06:32:01;;;;;;;3.47;1.30;;;8.70;99.90;;;;;;5067161;28;20037;-73
2022/04/26 06:34:26;;;;;;;5.85;1.55;;;8.70;99.90;;;;;;5064316;28;20037;-74
2022/04/26 06:36:52;;;;;;;1.90;1.02;;;8.70;99.90;;;;;;5065668;28;20475;-74
2022/04/26 06:39:17;;;;;;;2.15;1.15;;;8.70;99.90;;;;;;5048432;28;20092;-74
2022/04/26 06:41:43;;;;;;;2.42;1.60;;;8.70;99.90;;;;;;5063913;28;20117;-73
2022/04/26 06:44:08;;;;;;;4.43;1.27;;;8.70;99.90;;;;;;5064167;28;20590;-73
2022/04/26 06:46:37;;;;;;;6.68;1.48;;;8.60;99.90;;;;;;5049890;28;20493;-73
2022/04/26 06:49:03;;;;;;;1.80;1.00;;;8.70;99.90;;;;;;5064347;28;20438;-74
2022/04/26 06:51:40;;;;;;;2.38;1.10;;;8.80;99.90;;;;;;5047917;28;20029;-74
2022/04/26 06:54:06;;;;;;;4.68;1.38;;;8.80;99.90;;;;;;5047400;28;20078;-74
2022/04/26 06:56:32;;;;;;;1.73;0.98;;;8.70;99.90;;;;;;5050462;28;20052;-74
2022/04/26 06:58:57;;;;;;;1.75;1.20;;;8.70;99.90;;;;;;5063868;28;20568;-74
2022/04/26 07:01:23;;;;;;;6.00;1.80;;;8.70;99.90;;;;;;5048908;28;20025;-74
2022/04/26 07:03:49;;;;;;;3.42;1.48;;;8.70;99.90;;;;;;5065200;28;20550;-73
2022/04/26 07:06:14;;;;;;;2.60;1.15;;;8.70;99.90;;;;;;5063782;28;20043;-73
2022/04/26 07:08:40;;;;;;;1.88;1.45;;;8.70;99.90;;;;;;5059765;28;20036;-74
2022/04/26 07:11:06;;;;;;;2.08;1.15;;;8.70;99.90;;;;;;5059573;28;20398;-74
2022/04/26 07:13:31;;;;;;;1.77;1.17;;;8.80;99.90;;;;;;5045540;28;20041;-74
2022/04/26 07:15:57;;;;;;;2.63;1.38;;;8.80;99.90;;;;;;5064749;28;20036;-74
2022/04/26 07:18:22;;;;;;;2.00;1.27;;;8.90;99.90;;;;;;5059283;28;20490;-74
2022/04/26 07:20:48;;;;;;;3.42;1.70;;;9.00;99.90;;;;;;5043540;28;20033;-74
2022/04/26 07:23:13;;;;;;;2.75;1.63;;;9.00;99.90;;;;;;5060781;28;20105;-73
2022/04/26 07:25:40;;;;;;;2.10;1.13;;;9.10;99.90;;;;;;5062191;28;20040;-73
2022/04/26 07:28:06;;;;;;;2.88;1.27;;;9.10;99.90;;;;;;5060297;28;20041;-74
2022/04/26 07:30:34;;;;;;;2.67;1.45;;;9.20;99.90;;;;;;5058493;28;20043;-74
2022/04/26 07:35:49;;;;;;;2.75;1.60;;;9.20;99.90;;;;;;5060053;28;20127;-74
2022/04/26 07:38:15;;;;;;;2.78;1.50;;;9.20;99.90;;;;;;5045180;28;20056;-74
2022/04/26 07:40:41;;;;;;;3.97;1.80;;;9.20;99.90;;;;;;5062552;28;20321;-74
2022/04/26 07:43:06;;;;;;;3.97;1.30;;;9.20;99.90;;;;;;5047003;28;20129;-74
2022/04/26 07:45:35;;;;;;;3.95;1.50;;;9.20;99.90;;;;;;5062038;28;20032;-74
2022/04/26 07:48:01;;;;;;;1.60;1.02;;;9.20;99.90;;;;;;5048949;28;20043;-74
2022/04/26 07:50:28;;;;;;;4.22;1.50;;;9.20;99.90;;;;;;5062468;28;20033;-74
2022/04/26 07:52:54;;;;;;;1.85;1.10;;;9.20;99.90;;;;;;5064306;28;20039;-74
2022/04/26 07:55:19;;;;;;;2.80;1.10;;;9.20;99.90;;;;;;5065269;28;20037;-74
2022/04/26 07:57:45;;;;;;;3.78;1.27;;;9.30;99.90;;;;;;5067721;28;20349;-74
2022/04/26 08:00:11;;;;;;;1.85;0.85;;;9.30;99.90;;;;;;5049066;28;20039;-73
2022/04/26 08:02:36;;;;;;;1.80;0.93;;;9.40;99.90;;;;;;5047830;28;20617;-74
2022/04/26 08:05:02;;;;;;;0.52;0.40;;;9.40;99.90;;;;;;5062226;28;20111;-73
2022/04/26 08:07:29;;;;;;;2.67;1.15;;;9.30;99.90;;;;;;5046666;28;20045;-73
2022/04/26 08:09:55;;;;;;;2.55;1.08;;;9.30;99.90;;;;;;5065568;28;20442;-73
2022/04/26 08:12:21;;;;;;;9.18;1.58;;;9.40;99.90;;;;;;5061203;28;20043;-73
2022/04/26 08:14:47;;;;;;;2.17;1.20;;;9.50;99.90;;;;;;5061004;28;20394;-74
2022/04/26 08:17:15;;;;;;;1.38;1.05;;;9.70;99.90;;;;;;5063995;28;20048;-73
2022/04/26 08:19:43;;;;;;;2.47;0.98;;;9.80;99.90;;;;;;5064695;28;20119;-73
2022/04/26 08:22:09;;;;;;;2.55;1.00;;;9.90;99.90;;;;;;5066306;28;20543;-73
2022/04/26 08:27:30;;;;;;;2.35;0.90;;;10.00;99.90;;;;;;5064924;28;20053;-73
2022/04/26 08:29:58;;;;;;;2.65;0.98;;;9.90;99.90;;;;;;5066151;28;20059;-73
2022/04/26 08:32:26;;;;;;;1.63;0.98;;;9.80;99.90;;;;;;5064775;28;20036;-73
2022/04/26 08:34:56;;;;;;;0.75;0.52;;;9.80;99.90;;;;;;5047229;28;20043;-73
2022/04/26 08:37:23;;;;;;;2.08;1.02;;;9.70;99.90;;;;;;5045873;28;20056;-74
2022/04/26 08:39:52;;;;;;;1.63;0.82;;;9.70;99.90;;;;;;5049111;28;20048;-73
2022/04/26 08:42:52;;;;;;;3.58;1.50;;;9.70;99.90;;;;;;5049839;28;20032;-73
2022/04/26 08:45:19;;;;;;;8.02;0.85;;;9.70;99.90;;;;;;5049705;28;20044;-73
2022/04/26 08:53:17;;;;;;;6.10;1.13;;;10.00;99.90;;;;;;5066282;28;20195;-73
2022/04/26 08:55:46;;;;;;;2.85;0.90;;;10.10;99.90;;;;;;5048868;28;20552;-73
2022/04/26 08:58:13;;;;;;;1.40;0.77;;;10.20;99.90;;;;;;5048894;28;20490;-73
2022/04/26 09:01:16;;;;;;;2.08;0.80;;;10.10;99.90;;;;;;5066367;28;20414;-73
2022/04/26 09:03:54;;;;;;;2.17;0.90;;;10.10;99.90;;;;;;5066000;28;20409;-73
2022/04/26 09:06:33;;;;;;;3.58;0.90;;;10.10;99.90;;;;;;5048613;28;20060;-73
2022/04/26 09:09:07;;;;;;;4.15;1.27;;;10.20;98.50;;;;;;5049596;28;20070;-73
2022/04/26 09:11:34;;;;;;;4.20;1.33;;;10.30;99.90;;;;;;5064228;28;20258;-73
2022/04/26 09:14:04;;;;;;;2.47;0.75;;;10.30;99.90;;;;;;5065659;28;20041;-73
2022/04/26 09:16:30;;;;;;;2.35;1.20;;;10.30;99.70;;;;;;5048700;28;20036;-73
2022/04/26 09:19:06;;;;;;;2.67;1.20;;;10.30;99.90;;;;;;5066949;28;20791;-73
2022/04/26 09:21:33;;;;;;;1.40;1.08;;;10.40;99.40;;;;;;5049282;28;20048;-73
2022/04/26 09:24:05;;;;;;;1.50;0.90;;;10.50;99.90;;;;;;5066386;28;20486;-73
2022/04/26 09:26:38;;;;;;;2.67;1.42;;;10.60;99.90;;;;;;5066319;28;20032;-73
2022/04/26 09:29:08;;;;;;;4.53;1.02;;;10.70;96.80;;;;;;5049704;28;20048;-73
2022/04/26 09:31:38;;;;;;;1.80;1.10;;;10.70;96.50;;;;;;5069765;28;20041;-73
2022/04/26 09:34:10;;;;;;;3.17;0.85;;;10.70;96.20;;;;;;5051221;28;20037;-73
2022/04/26 09:36:45;;;;;;;8.48;1.13;;;10.60;97.70;;;;;;5053048;28;20437;-73
2022/04/26 09:39:20;;;;;;;3.80;0.98;;;10.60;98.10;;;;;;5068719;28;20452;-73
2022/04/26 09:41:50;;;;;;;1.63;0.82;;;10.70;98.90;;;;;;5066754;28;20041;-73
2022/04/26 09:44:16;;;;;;;1.85;1.00;;;10.60;96.50;;;;;;5063284;28;20043;-73
2022/04/26 09:46:49;;;;;;;1.13;0.80;;;10.60;97.80;;;;;;5067735;28;20036;-73
2022/04/26 09:49:18;;;;;;;2.42;1.00;;;10.70;97.80;;;;;;5050165;28;20504;-73
2022/04/26 09:51:45;;;;;;;2.00;0.88;;;10.70;98.30;;;;;;5070493;28;20486;-73
2022/04/26 09:54:11;;;;;;;1.75;0.95;;;10.60;96.70;;;;;;5051639;28;20043;-73
2022/04/26 09:56:38;;;;;;;1.23;0.70;;;10.60;96.90;;;;;;5070085;28;20036;-73
2022/04/26 09:59:04;;;;;;;1.70;0.70;;;10.60;96.30;;;;;;5067208;28;20039;-73
2022/04/26 10:01:42;;;;;;;1.52;1.10;;;10.60;95.70;;;;;;5069130;28;20044;-73
2022/04/26 10:04:09;;;;;;;2.28;1.10;;;10.70;95.20;;;;;;5051369;28;20036;-73
2022/04/26 10:06:40;;;;;;;5.07;1.42;;;10.80;94.90;;;;;;5069782;28;20052;-73
2022/04/26 10:09:08;;;;;;;1.70;0.88;;;10.80;95.80;;;;;;5067672;28;20036;-73
2022/04/26 10:11:34;;;;;;;2.45;1.23;;;10.80;94.80;;;;;;5068412;28;20033;-73
2022/04/26 10:14:11;;;;;;;3.38;1.15;;;10.80;95.70;;;;;;5065142;28;20532;-73
2022/04/26 10:16:38;;;;;;;3.22;1.10;;;10.70;95.20;;;;;;5063406;28;20115;-74
2022/04/26 10:19:07;;;;;;;2.05;0.95;;;10.70;95.30;;;;;;5059353;28;20040;-73
2022/04/26 10:21:38;;;;;;;4.22;1.50;;;10.70;95.10;;;;;;5067901;28;20032;-73
2022/04/26 10:24:25;;;;;;;1.95;1.08;;;10.70;95.90;;;;;;5064250;28;20059;-73
2022/04/26 10:26:52;;;;;;;2.33;1.13;;;10.70;94.10;;;;;;5060532;28;20159;-72
2022/04/26 10:29:23;;;;;;;1.67;1.00;;;10.80;94.90;;;;;;5064486;28;20074;-73
2022/04/26 10:31:57;;;;;;;2.08;1.00;;;10.90;91.60;;;;;;5065972;28;20402;-73
2022/04/26 10:34:25;;;;;;;2.10;1.17;;;10.90;95.20;;;;;;5058526;28;20067;-73
2022/04/26 10:37:01;;;;;;;2.10;0.85;;;11.00;95.00;;;;;;5065258;28;20064;-73
2022/04/26 10:39:31;;;;;;;2.80;0.85;;;11.10;94.60;;;;;;5079903;28;20375;-73
2022/04/26 10:41:58;;;;;;;1.85;0.90;;;11.20;92.50;;;;;;5061483;28;20405;-73
2022/04/26 10:44:26;;;;;;;1.25;0.68;;;11.20;94.80;;;;;;5039520;28;20040;-72
2022/04/26 10:47:01;;;;;;;2.53;0.90;;;11.10;92.80;;;;;;5064125;28;20044;-73
2022/04/26 10:49:32;;;;;;;1.65;0.80;;;11.10;90.50;;;;;;5062878;28;20072;-73
2022/04/26 10:52:19;;;;;;;1.70;0.95;;;11.20;90.30;;;;;;5063511;28;20128;-73
2022/04/26 10:55:02;;;;;;;2.53;1.38;;;11.20;88.50;;;;;;5041906;28;20269;-73
2022/04/26 10:57:35;;;;;;;2.45;1.10;;;11.20;90.60;;;;;;5042789;28;20083;-73
2022/04/26 11:00:11;;;;;;;3.08;1.30;;;11.20;91.80;;;;;;5041510;28;20055;-73
2022/04/26 11:02:46;;;;;;;2.17;1.15;;;11.30;92.00;;;;;;5062446;28;20275;-73
2022/04/26 11:05:34;;;;;;;1.17;0.85;;;11.40;89.90;;;;;;5060225;28;20482;-73
2022/04/26 11:08:00;;;;;;;4.28;1.30;;;11.40;89.60;;;;;;5062215;28;20127;-72
2022/04/26 11:10:27;;;;;;;1.00;0.60;;;11.40;90.90;;;;;;5047423;28;20121;-73
2022/04/26 11:12:56;;;;;;;3.53;1.08;;;11.40;93.00;;;;;;5063473;28;20123;-73
2022/04/26 11:15:24;;;;;;;2.70;1.20;;;11.50;93.90;;;;;;5060244;28;20037;-73
2022/04/26 11:17:51;;;;;;;3.22;1.20;;;11.50;92.60;;;;;;5046682;28;20082;-73
2022/04/26 11:20:19;;;;;;;1.75;0.80;;;11.60;91.70;;;;;;5062937;28;20124;-73
2022/04/26 11:22:56;;;;;;;1.20;0.70;;;11.50;89.90;;;;;;5043960;28;20464;-73
2022/04/26 11:28:09;;;;;;;;;;;11.50;91.20;;;;;;5062849;28;20056;-73
2022/04/26 11:30:39;;;;;;;2.85;0.70;;;11.60;77.70;;;;;;5046245;28;19966;-73
2022/04/26 11:33:06;;;;;;;2.65;1.20;;;11.60;84.30;;;;;;5049359;28;20508;-73
2022/04/26 11:35:34;;;;;;;2.13;1.00;;;11.60;90.90;;;;;;5047919;28;20420;-73
2022/04/26 11:38:12;;;;;;;1.60;0.82;;;11.60;89.80;;;;;;5049122;28;20072;-73
2022/04/26 11:40:41;;;;;;;1.33;0.73;;;11.60;88.80;;;;;;5061888;28;20469;-73
2022/04/26 11:43:14;;;;;;;1.40;0.93;;;11.60;89.60;;;;;;5061786;28;20466;-73
2022/04/26 11:45:42;;;;;;;3.03;1.17;;;11.60;89.80;;;;;;5060227;28;20532;-73
2022/04/26 11:48:09;;;;;;;7.15;1.55;;;11.70;90.60;;;;;;5066056;28;20040;-73
2022/04/26 11:50:35;;;;;;;1.38;0.88;;;11.80;90.10;;;;;;5061538;28;20115;-73
2022/04/26 11:53:14;;;;;;;2.60;0.65;;;11.80;88.90;;;;;;5063989;28;20644;-74
2022/04/26 11:55:54;;;;;;;2.85;1.17;;;11.80;88.90;;;;;;5062057;28;20044;-73
2022/04/26 11:58:35;;;;;;;1.38;1.10;;;11.70;89.60;;;;;;5063527;28;20040;-74
2022/04/26 12:01:17;;;;;;;2.38;1.10;;;11.70;83.20;;;;;;5059706;28;20063;-73
2022/04/26 12:03:48;;;;;;;1.75;0.85;;;11.60;90.30;;;;;;5061142;28;20510;-73
2022/04/26 12:06:16;;;;;;;3.35;0.80;;;11.70;90.80;;;;;;5047039;28;20094;-73
2022/04/26 12:08:46;;;;;;;1.63;0.80;;;11.70;90.90;;;;;;5066128;28;20033;-73
2022/04/26 12:11:36;;;;;;;1.33;0.80;;;11.70;90.40;;;;;;5064098;28;20560;-70
2022/04/26 12:14:07;;;;;;;1.77;0.93;;;11.80;88.50;;;;;;5043025;28;20048;-73
2022/04/26 12:16:40;;;;;;;2.40;0.82;;;11.80;83.50;;;;;;5064704;28;20032;-73
2022/04/26 12:19:06;;;;;;;1.55;0.80;;;11.80;86.90;;;;;;5062593;28;20047;-73
2022/04/26 12:21:54;;;;;;;2.40;0.90;;;11.80;88.30;;;;;;5059895;28;20705;-73
2022/04/26 12:24:23;;;;;;;1.73;0.90;;;11.80;86.40;;;;;;5061769;28;20124;-73
2022/04/26 12:27:12;;;;;;;1.58;0.77;;;11.90;86.30;;;;;;5044976;28;20076;-73
2022/04/26 12:29:38;;;;;;;1.45;0.75;;;11.90;81.40;;;;;;5044443;28;20106;-73
2022/04/26 12:32:12;;;;;;;1.90;0.98;;;12.00;85.30;;;;;;5064856;28;20048;-73
2022/04/26 12:34:50;;;;;;;2.25;1.13;;;12.00;82.10;;;;;;5064247;28;20032;-73
2022/04/26 12:37:27;;;;;;;1.17;0.80;;;12.00;81.50;;;;;;5060918;28;20052;-73
2022/04/26 12:40:00;;;;;;;3.90;1.02;;;12.10;79.50;;;;;;5059532;28;20218;-73
2022/04/26 12:42:38;;;;;;;1.83;0.80;;;12.10;81.20;;;;;;5060130;28;20036;-73
2022/04/26 12:45:03;;;;;;;2.05;0.82;;;12.00;79.50;;;;;;5046878;28;20406;-73
2022/04/26 12:50:35;;;;;;;2.35;0.75;;;11.90;84.70;;;;;;5062780;28;20044;-73
2022/04/26 12:53:06;;;;;;;2.67;0.98;;;11.90;81.70;;;;;;5043591;28;20041;-73
2022/04/26 12:55:37;;;;;;;1.20;0.80;;;12.00;83.40;;;;;;5061841;28;20029;-73
2022/04/26 12:58:14;;;;;;;1.30;0.98;;;12.00;82.60;;;;;;5060499;28;20543;-73
2022/04/26 13:00:50;;;;;;;1.85;0.80;;;12.00;81.30;;;;;;5064142;28;20048;-73
2022/04/26 13:03:17;;;;;;;3.72;1.05;;;11.90;82.00;;;;;;5063990;28;20040;-73
2022/04/26 13:05:50;;;;;;;2.58;0.85;;;11.90;84.80;;;;;;5044692;28;20038;-73
2022/04/26 13:08:21;;;;;;;1.50;0.90;;;12.00;79.00;;;;;;5045339;28;20052;-73
2022/04/26 13:10:48;;;;;;;2.78;0.93;;;11.90;82.50;;;;;;5078070;28;20040;-73
2022/04/26 13:13:14;;;;;;;2.03;0.70;;;11.90;79.80;;;;;;5047982;28;20025;-73
2022/04/26 13:15:44;;;;;;;2.28;1.10;;;11.80;82.70;;;;;;5067945;28;20398;-73
2022/04/26 13:18:11;;;;;;;1.50;0.70;;;11.80;83.20;;;;;;5065310;28;20040;-73
2022/04/26 13:20:37;;;;;;;0.98;0.73;;;11.80;84.10;;;;;;5067796;28;20494;-73
2022/04/26 13:23:03;;;;;;;3.13;1.05;;;11.90;84.50;;;;;;5066584;28;20094;-72
2022/04/26 13:25:29;;;;;;;2.28;1.08;;;11.90;81.90;;;;;;5047180;28;20132;-72
2022/04/26 13:27:55;;;;;;;1.67;0.77;;;12.00;83.60;;;;;;5066423;28;20127;-73
2022/04/26 13:30:21;;;;;;;3.83;0.90;;;12.10;83.90;;;;;;5049848;28;20025;-72
2022/04/26 13:32:47;;;;;;;1.13;0.70;;;12.20;80.30;;;;;;5067008;28;20033;-72
2022/04/26 13:35:13;;;;;;;1.48;0.82;;;12.20;80.80;;;;;;5052147;28;20033;-72
2022/04/26 13:37:39;;;;;;;1.60;0.82;;;12.30;80.70;;;;;;5050030;28;20058;-72
2022/04/26 13:40:06;;;;;;;1.70;0.73;;;12.30;81.40;;;;;;5068703;28;20079;-72
2022/04/26 13:42:35;;;;;;;2.22;0.73;;;12.30;81.50;;;;;;5049586;28;20037;-72
2022/04/26 13:45:00;;;;;;;2.05;0.80;;;12.30;81.00;;;;;;5050917;28;20078;-73
2022/04/26 13:47:26;;;;;;;2.13;1.08;;;12.40;80.70;;;;;;5066480;28;20064;-72
2022/04/26 13:49:52;;;;;;;4.75;0.60;;;12.30;80.40;;;;;;5066013;28;20121;-72
2022/04/26 13:52:20;;;;;;;2.10;0.93;;;12.30;81.00;;;;;;5049156;28;20037;-73
2022/04/26 13:54:46;;;;;;;2.05;0.98;;;12.30;75.70;;;;;;5047746;28;20419;-72
2022/04/26 13:57:12;;;;;;;2.58;1.15;;;12.20;77.70;;;;;;5066901;28;20467;-72
2022/04/26 13:59:37;;;;;;;1.50;0.95;;;12.20;79.80;;;;;;5065335;28;20041;-73
2022/04/26 14:02:05;;;;;;;1.60;0.70;;;12.20;79.80;;;;;;5049492;28;20036;-72
2022/04/26 14:04:31;;;;;;;2.00;0.73;;;12.20;78.80;;;;;;5067612;28;20052;-73
2022/04/26 14:06:57;;;;;;;1.08;0.70;;;12.20;77.20;;;;;;5065262;28;20044;-72
2022/04/26 14:09:22;;;;;;;2.33;1.33;;;12.30;76.50;;;;;;5065506;28;20040;-72
2022/04/26 14:11:48;;;;;;;0.77;0.50;;;12.30;77.90;;;;;;5067111;28;20036;-72
2022/04/26 14:22:32;;;;;;;6.88;1.63;;;12.30;76.80;;;;;;5055749;28;20343;-72
2022/04/26 14:24:59;;;;;;;1.45;0.82;;;12.30;77.40;;;;;;5059060;28;20048;-73
2022/04/26 14:27:26;;;;;;;1.90;0.80;;;12.20;77.20;;;;;;5064206;28;20052;-72
2022/04/26 14:29:51;;;;;;;2.65;0.88;;;12.20;76.80;;;;;;5065420;28;20060;-73
2022/04/26 14:32:17;;;;;;;1.08;0.70;;;12.30;78.20;;;;;;5059139;28;20060;-73
2022/04/26 14:34:43;;;;;;;1.48;0.82;;;12.30;77.10;;;;;;5046642;28;20137;-73
2022/04/26 14:37:09;;;;;;;1.23;0.73;;;12.40;77.30;;;;;;5067374;28;20052;-73
2022/04/26 14:39:36;;;;;;;2.90;0.68;;;12.40;76.10;;;;;;5063097;28;20387;-73
2022/04/26 14:42:02;;;;;;;1.35;0.75;;;12.50;77.60;;;;;;5047534;28;20443;-73
2022/04/26 14:44:28;;;;;;;1.70;0.95;;;12.40;75.90;;;;;;5061785;28;20434;-73
2022/04/26 14:46:54;;;;;;;4.47;1.27;;;12.50;75.20;;;;;;5063580;28;20036;-73
2022/04/26 14:49:19;;;;;;;2.15;0.98;;;12.30;74.00;;;;;;5064998;28;20077;-73
2022/04/26 14:51:46;;;;;;;1.73;0.77;;;12.30;75.30;;;;;;5047531;28;20309;-73
2022/04/26 14:54:11;;;;;;;1.05;0.70;;;12.30;74.70;;;;;;5064324;28;20474;-72
2022/04/26 14:56:37;;;;;;;1.23;0.70;;;12.30;74.50;;;;;;5064253;28;20086;-72
2022/04/26 14:59:03;;;;;;;2.60;1.08;;;12.40;76.00;;;;;;5063043;28;20405;-73
2022/04/26 15:01:30;;;;;;;2.40;0.98;;;12.40;76.30;;;;;;5045405;28;20040;-73
2022/04/26 15:03:58;;;;;;;2.35;0.85;;;12.40;71.90;;;;;;5062480;28;20505;-72
2022/04/26 15:06:24;;;;;;;1.50;0.80;;;12.40;73.30;;;;;;5043478;28;20037;-72
2022/04/26 15:11:34;;;;;;;6.93;1.20;;;12.40;75.60;;;;;;5062108;28;20443;-72
2022/04/26 15:16:46;;;;;;;2.55;1.10;;;12.30;75.00;;;;;;5059681;28;20115;-73
2022/04/26 15:19:14;;;;;;;1.83;0.82;;;12.20;76.40;;;;;;5048065;28;20036;-73
2022/04/26 15:21:44;;;;;;;1.40;1.00;;;12.00;75.60;;;;;;5060921;28;20041;-72
2022/04/26 15:24:13;;;;;;;2.25;1.15;;;12.00;75.10;;;;;;5054940;28;20052;-73
2022/04/26 15:26:39;;;;;;;1.98;0.90;;;11.90;75.70;;;;;;5064209;28;20071;-72
2022/04/26 15:29:05;;;;;;;2.15;1.63;;;11.80;77.30;;;;;;5059371;28;20174;-72
2022/04/26 15:31:32;;;;;;;1.88;0.88;;;11.70;77.40;;;;;;5066343;28;20109;-73
2022/04/26 15:33:58;;;;;;;4.03;0.90;;;11.70;77.80;;;;;;5063019;28;20032;-72
2022/04/26 15:36:24;;;;;;;5.30;1.15;;;11.70;76.40;;;;;;5063029;28;20550;-72
2022/04/26 15:38:54;;;;;;;2.47;0.82;;;11.70;77.40;;;;;;5057498;28;20044;-72
2022/04/26 15:41:23;;;;;;;3.38;1.10;;;11.70;78.40;;;;;;5078001;28;20036;-72
2022/04/26 15:43:49;;;;;;;3.13;1.00;;;11.70;78.20;;;;;;5059390;28;20040;-72
2022/04/26 15:46:14;;;;;;;2.95;0.95;;;11.70;79.10;;;;;;5048637;28;20044;-73
2022/04/26 15:48:47;;;;;;;2.53;1.10;;;11.80;77.00;;;;;;5056611;28;20494;-72
2022/04/26 15:51:14;;;;;;;1.88;1.00;;;11.80;76.80;;;;;;5059002;28;20040;-72
2022/04/26 15:53:39;;;;;;;2.17;0.98;;;11.80;76.70;;;;;;5063616;28;20048;-73
2022/04/26 15:56:05;;;;;;;2.85;1.20;;;11.80;76.00;;;;;;5055437;28;20033;-72
2022/04/26 15:58:30;;;;;;;1.23;0.90;;;11.70;74.20;;;;;;5063634;28;20364;-72
2022/04/26 16:00:57;;;;;;;2.15;0.80;;;11.70;77.20;;;;;;5060713;28;20516;-73
2022/04/26 16:03:23;;;;;;;2.45;1.17;;;11.70;76.20;;;;;;5059690;28;20048;-71
2022/04/26 16:05:49;;;;;;;3.70;0.90;;;11.70;76.80;;;;;;5060565;28;20111;-72
2022/04/26 16:08:14;;;;;;;1.92;0.90;;;11.70;77.60;;;;;;5061277;28;20045;-73
2022/04/26 16:21:37;;;;;;;1.15;0.73;;;11.70;77.30;;;;;;5060791;28;20040;-73
2022/04/26 16:24:04;;;;;;;1.40;0.85;;;11.70;76.60;;;;;;5059985;28;20046;-72
2022/04/26 16:26:32;;;;;;;1.02;0.60;;;11.70;77.50;;;;;;5061351;28;20048;-70
2022/04/26 16:28:58;;;;;;;3.35;1.00;;;11.70;75.90;;;;;;5058517;28;20064;-72
2022/04/26 16:31:30;;;;;;;1.27;0.80;;;11.70;75.30;;;;;;5043024;28;20397;-72
2022/04/26 16:34:00;;;;;;;1.85;1.02;;;11.60;75.50;;;;;;5065865;28;20119;-72
2022/04/26 16:36:27;;;;;;;1.15;0.63;;;11.60;75.80;;;;;;5065770;28;20064;-73
2022/04/26 16:38:54;;;;;;;1.27;0.80;;;11.50;76.40;;;;;;5048273;28;20068;-72
2022/04/26 16:41:20;;;;;;;1.52;0.85;;;11.50;75.20;;;;;;5048026;28;20048;-72
2022/04/26 16:43:47;;;;;;;1.17;0.68;;;11.50;75.10;;;;;;5063156;28;20085;-72
2022/04/26 16:46:15;;;;;;;0.93;0.70;;;11.40;75.70;;;;;;5048888;28;20040;-72
2022/04/26 16:48:42;;;;;;;1.15;0.70;;;11.40;75.40;;;;;;5065663;28;20049;-73
2022/04/26 16:51:08;;;;;;;0.88;0.70;;;11.40;77.00;;;;;;5065271;28;20033;-73
2022/04/26 16:53:34;;;;;;;1.73;0.93;;;11.30;78.40;;;;;;5064656;28;20079;-72
2022/04/26 16:56:00;;;;;;;1.75;1.05;;;11.30;78.40;;;;;;5060148;28;20068;-72
2022/04/26 16:58:26;;;;;;;2.15;0.82;;;11.30;77.50;;;;;;5063113;28;20093;-73
2022/04/26 17:00:51;;;;;;;2.28;1.15;;;11.20;77.30;;;;;;5048791;28;20744;-72
2022/04/26 17:03:18;;;;;;;2.83;1.00;;;11.20;78.10;;;;;;5049587;28;20032;-73
2022/04/26 17:05:47;;;;;;;1.58;0.80;;;11.20;78.30;;;;;;5064019;28;20131;-73
2022/04/26 17:08:18;;;;;;;2.53;1.23;;;11.20;79.10;;;;;;5047321;28;20037;-72
2022/04/26 17:10:45;;;;;;;2.70;1.00;;;11.20;79.60;;;;;;5062355;28;20044;-73
2022/04/26 17:13:12;;;;;;;1.17;0.80;;;11.30;79.50;;;;;;5064265;28;20064;-72
2022/04/26 17:15:38;;;;;;;2.88;1.25;;;11.30;77.90;;;;;;5064239;28;20455;-72